Latest Weather Observations for Hobart

IDT60801

Issued at 7:51 am EDT Wednesday 23 January 2019 (issued every 10 minutes, with the page automatically refreshed every 10 minutes)

About weather observations | Map of weather stations | Latest weather observations for TAS | Other Formats
Station Details ID: 094029 Name: HOBART (ELLERSLIE ROAD) Lat: -42.89 Lon: 147.33 Height: 50.5 m
Data from the previous 72 hours. | See also: Recent months at Hobart
Date/Time
EDT
Temp
°C
App
Temp
°C
Dew
Point
°C
Rel
Hum
%
Delta-T
°C
Wind Press
QNH
hPa
Press
MSL
hPa
Rain since
9am
mm
Dir  Spd
km/h
Gust
km/h
Spd
kts
Gust
kts
23/07:30am 14.4 11.1 6.3 58 3.9 S 13 22 7 12 1016.2 1016.1 0.0
23/07:00am 13.0 8.5 6.8 66 3.0 SSW 20 35 11 19 1016.1 1016.0 0.0
23/06:30am 12.9 7.3 7.1 68 2.8 SSW 26 39 14 21 1015.5 1015.4 0.0
23/06:00am 12.9 7.0 7.4 69 2.7 SSW 28 44 15 24 1014.8 1014.7 0.0
23/05:37am 12.8 6.9 7.5 70 2.6 SSW 28 46 15 25 1014.6 1014.5 0.0
23/05:30am 12.7 6.0 7.4 70 2.6 SSW 32 46 17 25 1014.3 1014.2 0.0
23/05:19am 12.7 6.8 7.6 71 2.5 S 28 46 15 25 1014.3 1014.2 0.0
23/05:00am 12.8 6.0 7.9 72 2.4 SSE 33 43 18 23 1014.1 1014.0 0.0
23/04:36am 12.8 6.1 8.1 73 2.3 S 33 54 18 29 1013.5 1013.4 0.0
23/04:30am 12.8 6.2 8.5 75 2.1 S 33 50 18 27 1013.4 1013.3 0.0
23/04:16am 13.0 6.9 9.8 81 1.6 S 32 50 17 27 1013.2 1013.1 0.0
23/04:00am 13.3 7.3 10.1 81 1.7 S 32 44 17 24 1013.3 1013.2 0.0
23/03:30am 13.7 7.4 11.2 85 1.3 S 35 52 19 28 1012.6 1012.5 0.0
23/03:06am 14.4 8.3 11.7 84 1.5 S 35 54 19 29 1012.0 1011.9 0.0
23/03:00am 14.3 7.8 11.8 85 1.3 S 37 54 20 29 1011.5 1011.4 0.0
23/02:46am 15.3 8.7 11.5 78 2.0 SSW 37 56 20 30 1011.2 1011.1 0.0
23/02:37am 16.8 12.5 10.6 67 3.3 S 24 46 13 25 1011.0 1010.9 0.0
23/02:30am 19.0 15.6 9.2 53 5.2 SSW 17 24 9 13 1010.9 1010.8 0.0
23/02:00am 18.8 17.0 9.6 55 4.9 SE 9 13 5 7 1010.1 1010.1 0.0
23/01:30am 18.9 17.2 9.7 55 4.9 ESE 9 17 5 9 1010.0 1010.0 0.0
23/01:00am 18.8 17.6 10.4 58 4.5 ENE 7 15 4 8 1010.1 1010.1 0.0
23/12:30am 18.6 16.7 11.7 64 3.8 W 13 19 7 10 1009.5 1009.5 0.0
23/12:00am 18.6 14.8 11.2 62 4.0 SSW 22 33 12 18 1009.1 1009.1 0.0
 
Date/Time
EDT
Temp
°C
App
Temp
°C
Dew
Point
°C
Rel
Hum
%
Delta-T
°C
Wind Press
QNH
hPa
Press
MSL
hPa
Rain since
9am
mm
Dir  Spd
km/h
Gust
km/h
Spd
kts
Gust
kts
22/11:30pm 18.8 14.0 12.8 68 3.4 SSW 30 50 16 27 1008.8 1008.8 0.0
22/11:26pm 18.7 15.7 13.6 72 2.9 SSW 22 50 12 27 1008.8 1008.8 0.0
22/11:00pm 18.2 17.8 15.3 83 1.7 SE 11 17 6 9 1009.1 1009.1 0.0
22/10:30pm 18.2 17.2 15.5 84 1.6 ESE 15 20 8 11 1008.5 1008.5 0.0
22/10:00pm 18.4 17.7 15.3 82 1.8 SE 13 17 7 9 1008.5 1008.5 0.0
22/09:30pm 18.6 18.2 15.3 81 1.9 SE 11 15 6 8 1008.1 1008.1 0.0
22/09:00pm 18.7 18.4 15.4 81 1.9 SE 11 17 6 9 1007.9 1007.9 0.0
22/08:30pm 19.0 18.3 15.3 79 2.2 SSE 13 19 7 10 1007.9 1007.9 0.0
22/08:00pm 19.0 17.9 15.3 79 2.2 SE 15 20 8 11 1007.9 1007.9 0.0
22/07:30pm 19.2 17.7 15.3 78 2.3 SE 17 22 9 12 1008.0 1008.0 0.0
22/07:00pm 19.9 18.7 15.1 74 2.8 SE 15 22 8 12 1008.0 1008.0 0.0
22/06:30pm 20.4 18.4 15.0 71 3.2 SE 19 24 10 13 1008.0 1008.0 0.0
22/06:00pm 21.1 19.1 15.0 68 3.6 SE 19 24 10 13 1008.3 1008.3 0.0
22/05:30pm 21.4 19.3 14.8 66 3.9 SE 19 24 10 13 1008.5 1008.5 0.0
22/05:00pm 21.5 19.8 14.6 65 4.1 SE 17 24 9 13 1008.6 1008.6 0.0
22/04:30pm 22.4 20.6 14.5 61 4.7 SE 17 24 9 13 1008.7 1008.7 0.0
22/04:00pm 22.6 21.0 13.9 58 5.1 SSE 15 24 8 13 1008.8 1008.8 0.0
22/03:30pm 21.9 18.9 13.8 60 4.7 SE 22 32 12 17 1009.0 1009.0 0.0
22/03:00pm 21.9 18.3 14.3 62 4.5 SE 26 35 14 19 1009.0 1009.0 0.0
22/02:30pm 22.0 18.4 14.1 61 4.6 SE 26 32 14 17 1008.9 1008.9 0.0
22/02:00pm 22.8 19.3 14.6 60 4.9 SE 26 33 14 18 1009.2 1009.2 0.0
22/01:30pm 23.1 19.6 14.4 58 5.1 ESE 26 32 14 17 1009.2 1009.2 0.0
22/01:00pm 23.5 20.8 14.5 57 5.3 SE 22 30 12 16 1009.4 1009.4 0.0
22/12:30pm 23.0 20.4 13.8 56 5.4 ESE 20 26 11 14 1009.5 1009.5 0.0
22/12:00pm 22.3 19.9 12.8 55 5.4 ESE 17 24 9 13 1009.9 1009.9 0.0
22/11:30am 22.1 20.7 13.5 58 5.0 ESE 13 19 7 10 1010.4 1010.3 0.0
22/11:00am 21.3 19.8 13.2 60 4.7 ESE 13 17 7 9 1010.6 1010.5 0.0
22/10:30am 20.0 18.4 13.9 68 3.5 ESE 15 19 8 10 1010.9 1010.8 0.0
22/10:00am 19.9 18.6 14.7 72 3.0 ESE 15 19 8 10 1011.1 1011.0 0.0
22/09:30am 19.4 18.3 14.4 73 2.9 ESE 13 19 7 10 1011.1 1011.0 0.0
22/09:00am 19.1 18.7 14.1 73 2.9 SE 9 15 5 8 1011.1 1011.0 0.0
22/08:30am 18.7 18.8 14.4 76 2.5 NE 7 11 4 6 1011.2 1011.1 0.0
22/08:00am 17.8 18.9 14.5 81 1.9 SSW 2 7 1 4 1011.4 1011.3 0.0
22/07:30am 16.6 16.1 13.7 83 1.6 W 9 15 5 8 1011.2 1011.1 0.0
22/07:00am 15.6 15.1 12.7 83 1.6 W 7 9 4 5 1011.3 1011.2 0.0
22/06:30am 15.8 15.4 13.1 84 1.5 WSW 7 11 4 6 1011.4 1011.3 0.0
22/06:00am 15.4 15.0 12.9 85 1.4 W 7 9 4 5 1011.1 1011.0 0.0
22/05:30am 15.0 14.6 12.3 84 1.5 WSW 6 9 3 5 1011.1 1011.0 0.0
22/05:00am 15.2 14.7 12.7 85 1.4 WSW 7 11 4 6 1011.1 1011.0 0.0
22/04:30am 15.0 14.5 12.7 86 1.3 W 7 9 4 5 1011.1 1011.0 0.0
22/04:00am 15.1 14.6 12.8 86 1.3 W 7 11 4 6 1011.4 1011.3 0.0
22/03:30am 15.5 15.2 13.2 86 1.3 WSW 7 11 4 6 1011.5 1011.4 0.0
22/03:00am 15.6 14.9 13.3 86 1.3 SW 9 13 5 7 1011.5 1011.4 0.0
22/02:30am 15.8 14.8 13.3 85 1.4 SW 11 13 6 7 1011.7 1011.6 0.0
22/02:00am 16.1 15.5 13.6 85 1.4 WSW 9 13 5 7 1012.0 1011.9 0.0
22/01:30am 16.1 15.5 13.6 85 1.4 SW 9 11 5 6 1012.1 1012.0 0.0
22/01:00am 16.5 16.0 13.8 84 1.5 WSW 9 11 5 6 1012.4 1012.3 0.0
22/12:30am 16.7 16.6 14.0 84 1.5 SW 7 11 4 6 1012.7 1012.6 0.0
22/12:00am 17.1 16.7 14.2 83 1.7 SW 9 11 5 6 1013.0 1012.9 0.0
 
Date/Time
EDT
Temp
°C
App
Temp
°C
Dew
Point
°C
Rel
Hum
%
Delta-T
°C
Wind Press
QNH
hPa
Press
MSL
hPa
Rain since
9am
mm
Dir  Spd
km/h
Gust
km/h
Spd
kts
Gust
kts
21/11:30pm 17.7 17.9 14.8 83 1.7 S 7 11 4 6 1013.1 1013.0 0.0
21/11:00pm 18.0 18.2 14.7 81 1.9 SSE 7 9 4 5 1013.3 1013.2 0.0
21/10:30pm 18.2 19.3 14.5 79 2.1 SSE 2 7 1 4 1013.5 1013.4 0.0
21/10:00pm 18.3 17.9 14.2 77 2.4 SSW 9 15 5 8 1013.6 1013.5 0.0
21/09:30pm 19.1 18.3 15.0 77 2.4 SSE 13 17 7 9 1013.3 1013.2 0.0
21/09:00pm 19.4 18.7 14.2 72 3.0 S 11 15 6 8 1012.9 1012.8 0.0
21/08:30pm 20.1 19.1 14.5 70 3.3 SSE 13 17 7 9 1012.8 1012.7 0.0
21/08:00pm 20.6 19.3 14.7 69 3.5 SE 15 20 8 11 1012.6 1012.5 0.0
21/07:30pm 20.8 20.2 14.7 68 3.6 SE 11 17 6 9 1012.5 1012.4 0.0
21/07:00pm 21.1 20.0 14.3 65 4.0 SE 13 19 7 10 1012.3 1012.2 0.0
21/06:30pm 21.6 20.2 14.5 64 4.2 SE 15 20 8 11 1012.4 1012.3 0.0
21/06:00pm 22.5 21.1 14.6 61 4.7 ESE 15 24 8 13 1012.3 1012.2 0.0
21/05:30pm 22.7 21.0 14.8 61 4.7 ESE 17 22 9 12 1012.3 1012.2 0.0
21/05:00pm 22.4 20.0 14.3 60 4.8 SE 20 28 11 15 1012.3 1012.2 0.0
21/04:30pm 21.7 19.0 14.6 64 4.2 SE 22 32 12 17 1012.4 1012.3 0.0
21/04:00pm 20.7 16.2 15.0 70 3.4 ESE 32 43 17 23 1012.5 1012.4 0.0
21/03:30pm 21.3 16.7 14.7 66 3.9 SE 32 44 17 24 1012.3 1012.2 0.0
21/03:00pm 22.4 18.9 14.5 61 4.7 SE 26 37 14 20 1012.6 1012.5 0.0
21/02:30pm 22.3 18.7 15.2 64 4.2 ESE 28 39 15 21 1012.7 1012.6 0.0
21/02:00pm 22.2 19.5 15.5 66 4.0 ESE 24 33 13 18 1012.8 1012.7 0.0
21/01:30pm 23.3 19.1 15.6 62 4.6 ESE 32 43 17 23 1012.6 1012.5 0.0
21/01:00pm 27.3 23.0 12.1 39 8.8 ESE 26 35 14 19 1012.2 1012.1 0.0
21/12:30pm 27.8 24.7 12.2 38 9.1 SE 20 26 11 14 1012.4 1012.3 0.0
21/12:00pm 28.6 25.5 11.6 34 9.8 SSE 19 24 10 13 1012.7 1012.6 0.0
21/11:30am 29.1 23.6 10.7 32 10.5 NNW 30 43 16 23 1012.9 1012.8 0.0
21/11:00am 28.4 24.2 11.0 34 9.9 NNW 24 37 13 20 1013.1 1013.0 0.0
21/10:30am 27.1 23.6 10.3 35 9.4 N 19 35 10 19 1013.5 1013.4 0.0
21/10:15am 25.9 22.3 9.7 36 8.9 N 19 35 10 19 1013.7 1013.6 0.0
21/10:00am 24.5 23.3 11.5 44 7.3 E 9 17 5 9 1014.0 1013.9 0.0
21/09:30am 24.2 22.4 10.8 43 7.5 N 11 17 6 9 1014.4 1014.3 0.0
21/09:00am 22.9 21.3 10.3 45 6.9 N 9 17 5 9 1014.8 1014.7 0.0
21/08:30am 21.3 20.3 11.1 52 5.6 N 7 13 4 7 1015.0 1014.9 0.0
21/08:00am 20.1 19.1 11.1 56 4.9 NNE 7 11 4 6 1015.0 1014.9 0.0
21/07:30am 18.9 17.5 11.0 60 4.3 N 9 15 5 8 1015.0 1014.9 0.0
21/07:00am 18.1 16.9 11.7 66 3.5 NW 9 13 5 7 1015.0 1014.9 0.0
21/06:30am 16.3 14.9 11.0 71 2.8 WNW 9 11 5 6 1015.2 1015.1 0.0
21/06:00am 15.7 14.3 10.9 73 2.6 SW 9 11 5 6 1015.3 1015.2 0.0
21/05:30am 15.9 15.1 10.9 72 2.7 SSW 6 11 3 6 1015.1 1015.0 0.0
21/05:00am 16.8 15.8 11.1 69 3.1 W 7 13 4 7 1014.9 1014.8 0.0
21/04:30am 16.3 14.5 11.0 71 2.8 SW 11 13 6 7 1015.2 1015.1 0.0
21/04:00am 16.5 15.1 11.0 70 3.0 W 9 13 5 7 1015.3 1015.2 0.0
21/03:30am 16.7 16.7 11.2 70 3.0 SW 2 6 1 3 1015.6 1015.5 0.0
21/03:00am 16.8 15.5 11.3 70 3.0 SW 9 13 5 7 1015.7 1015.6 0.0
21/02:30am 16.9 15.2 11.2 69 3.1 SW 11 17 6 9 1016.1 1016.0 0.0
21/02:00am 17.4 15.7 11.2 67 3.4 WSW 11 17 6 9 1016.5 1016.4 0.0
21/01:30am 17.8 16.6 11.6 67 3.4 WSW 9 15 5 8 1016.7 1016.6 0.0
21/01:00am 18.2 17.7 12.6 70 3.1 SW 7 11 4 6 1016.8 1016.7 0.0
21/12:30am 18.4 18.8 14.7 79 2.1 SSW 6 13 3 7 1016.7 1016.6 0.0
21/12:00am 18.7 19.1 15.2 80 2.1 ESE 7 11 4 6 1016.8 1016.7 0.0
 
Date/Time
EDT
Temp
°C
App
Temp
°C
Dew
Point
°C
Rel
Hum
%
Delta-T
°C
Wind Press
QNH
hPa
Press
MSL
hPa
Rain since
9am
mm
Dir  Spd
km/h
Gust
km/h
Spd
kts
Gust
kts
20/11:30pm 18.8 17.7 15.3 80 2.1 ESE 15 20 8 11 1016.9 1016.8 0.0
20/11:00pm 18.9 19.3 15.4 80 2.1 ESE 7 9 4 5 1017.1 1017.0 0.0
20/10:30pm 19.2 19.2 15.3 78 2.3 E 9 13 5 7 1017.4 1017.3 0.0
20/10:00pm 20.0 20.0 14.1 69 3.4 SSE 7 13 4 7 1017.5 1017.4 0.0
20/09:30pm 20.4 18.8 13.8 66 3.8 ESE 15 22 8 12 1017.1 1017.0 0.0
20/09:00pm 20.2 20.2 15.2 73 3.0 E 9 13 5 7 1016.6 1016.5 0.0
20/08:30pm 20.2 18.7 15.2 73 3.0 ENE 17 26 9 14 1016.1 1016.0 0.0
20/08:00pm 21.4 21.4 14.3 64 4.1 NE 7 15 4 8 1015.8 1015.7 0.0
20/07:30pm 22.7 22.0 14.3 59 4.9 NE 11 15 6 8 1015.4 1015.3 0.0
20/07:00pm 24.7 24.5 13.6 50 6.5 NE 7 13 4 7 1015.1 1015.0 0.0
20/06:30pm 26.7 25.3 10.8 37 9.0 ENE 9 15 5 8 1014.9 1014.8 0.0
20/06:00pm 28.2 25.1 10.4 33 10.1 W 17 35 9 19 1014.9 1014.8 0.0
20/05:30pm 29.3 25.9 10.4 31 10.7 NNW 19 30 10 16 1014.9 1014.8 0.0
20/05:00pm 28.2 25.3 9.5 31 10.4 E 15 26 8 14 1014.7 1014.6 0.0
20/04:30pm 27.9 25.5 8.7 30 10.5 E 11 20 6 11 1014.9 1014.8 0.0
20/04:00pm 27.2 24.0 8.6 31 10.1 E 15 24 8 13 1015.0 1014.9 0.0
20/03:30pm 26.6 22.7 8.6 32 9.8 E 19 24 10 13 1015.1 1015.0 0.0
20/03:00pm 26.6 23.8 9.9 35 9.3 ESE 15 20 8 11 1015.4 1015.3 0.0
20/02:30pm 25.6 23.1 9.8 37 8.7 ESE 13 22 7 12 1015.4 1015.3 0.0
20/02:00pm 26.8 23.1 9.6 34 9.5 NNE 19 28 10 15 1015.5 1015.4 0.0
20/01:30pm 26.1 22.6 10.3 37 8.8 NE 19 24 10 13 1015.6 1015.5 0.0
20/01:00pm 27.0 23.9 10.2 35 9.4 N 17 28 9 15 1015.3 1015.2 0.0
20/12:30pm 25.7 22.8 9.5 36 8.9 NNW 15 24 8 13 1015.4 1015.3 0.0
20/12:00pm 25.5 22.1 9.3 36 8.9 NNW 17 26 9 14 1015.5 1015.4 0.0
20/11:30am 25.1 21.7 9.0 36 8.7 NNW 17 24 9 13 1015.8 1015.7 0.0
20/11:00am 25.1 21.8 9.4 37 8.6 NW 17 28 9 15 1015.7 1015.6 0.0
20/10:30am 25.2 22.4 9.9 38 8.4 NNE 15 24 8 13 1015.4 1015.3 0.0
20/10:00am 21.8 18.3 10.9 50 6.0 ESE 20 28 11 15 1015.5 1015.4 0.0
20/09:30am 21.2 19.0 10.7 51 5.8 ENE 13 19 7 10 1015.7 1015.6 0.0
20/09:00am 20.9 19.4 10.4 51 5.7 S 9 22 5 12 1015.5 1015.4 0.0
20/08:30am 20.4 18.0 10.2 52 5.5 N 13 22 7 12 1015.1 1015.0 0.0
20/08:00am 19.3 17.3 10.0 55 5.0 SE 11 19 6 10 1014.8 1014.7 0.0

Other Formats:

Comma delimited format used in spreadsheet applications
http://www.bom.gov.au/fwo/IDT60801/IDT60801.94970.axf

JavaScript Object Notation format (JSON) in row-major order
http://www.bom.gov.au/fwo/IDT60801/IDT60801.94970.json